Time;durP1;ratioP1;P1;durP2;ratioP2;P2;SDS_P1;SDS_P2;PMS_P1;PMS_P2;Temp;Humidity;BMP_temperature;BMP_pressure;BME280_temperature;BME280_humidity;BME280_pressure;Samples;Min_cycle;Max_cycle;Signal;HPM_P1;HPM_P2
2020/12/24 00:00:22;;;;;;;39.77;18.43;;;;;;;3.73;75.42;99364.09;323931;119;1961846;-74
2020/12/24 00:01:28;;;;;;;35.50;17.51;;;;;;;3.72;75.16;99373.08;330803;119;1961995;-73
2020/12/24 00:02:33;;;;;;;36.52;16.44;;;;;;;3.70;75.50;99367.06;331740;121;1965007;-73
2020/12/24 00:03:39;;;;;;;34.35;15.76;;;;;;;3.72;75.02;99364.24;335110;119;1962042;-74
2020/12/24 00:04:45;;;;;;;33.81;16.41;;;;;;;3.70;75.44;99367.06;335678;121;1963998;-74
2020/12/24 00:05:52;;;;;;;37.63;16.33;;;;;;;3.70;75.44;99369.74;296067;121;2737895;-73
2020/12/24 00:06:57;;;;;;;34.70;17.45;;;;;;;3.69;75.43;99372.59;333894;121;1963023;-74
2020/12/24 00:08:05;;;;;;;33.15;16.51;;;;;;;3.69;75.29;99376.09;331076;120;1967952;-74
2020/12/24 00:09:11;;;;;;;44.10;16.39;;;;;;;3.68;75.46;99371.77;292518;120;2880950;-74
2020/12/24 00:10:17;;;;;;;40.22;15.57;;;;;;;3.67;75.44;99372.75;334459;119;1962050;-74
2020/12/24 00:11:24;;;;;;;41.42;15.18;;;;;;;3.69;75.41;99368.08;335335;119;1961943;-74
2020/12/24 00:12:30;;;;;;;37.07;17.76;;;;;;;3.67;75.21;99363.91;334661;119;1962108;-74
2020/12/24 00:13:36;;;;;;;41.04;18.48;;;;;;;3.66;75.63;99371.09;320907;119;1962033;-75
2020/12/24 00:14:42;;;;;;;34.62;15.61;;;;;;;3.65;75.48;99372.11;321614;123;1962931;-74
2020/12/24 00:15:47;;;;;;;35.57;16.52;;;;;;;3.68;75.17;99371.77;334353;121;1962015;-73
2020/12/24 00:16:56;;;;;;;36.19;16.24;;;;;;;3.66;75.48;99364.92;333336;119;1961997;-74
2020/12/24 00:18:02;;;;;;;33.84;15.84;;;;;;;3.66;75.44;99357.74;341097;117;1964021;-73
2020/12/24 00:19:07;;;;;;;33.24;16.02;;;;;;;3.66;75.50;99360.41;339521;117;1961952;-74
2020/12/24 00:20:16;;;;;;;35.14;16.52;;;;;;;3.65;75.84;99361.43;314750;117;2398969;-74
2020/12/24 00:21:22;;;;;;;39.49;17.09;;;;;;;3.66;75.97;99360.41;339277;116;1962038;-74
2020/12/24 00:22:27;;;;;;;31.91;17.09;;;;;;;3.70;75.70;99360.90;338452;117;1962005;-73
2020/12/24 00:23:33;;;;;;;35.14;14.23;;;;;;;3.71;75.45;99357.24;337978;117;1962000;-74
2020/12/24 00:24:39;;;;;;;35.68;14.33;;;;;;;3.74;74.88;99362.24;293780;117;2847035;-74
2020/12/24 00:25:44;;;;;;;35.67;14.16;;;;;;;3.72;74.85;99358.90;302727;121;1961960;-74
2020/12/24 00:26:50;;;;;;;33.27;14.59;;;;;;;3.69;75.24;99356.57;332938;119;1961860;-74
2020/12/24 00:27:55;;;;;;;36.46;16.61;;;;;;;3.65;75.26;99355.23;339885;117;1964015;-74
2020/12/24 00:29:06;;;;;;;31.87;15.92;;;;;;;3.65;75.31;99353.42;338229;118;1962140;-74
2020/12/24 00:30:11;;;;;;;35.84;15.55;;;;;;;3.65;75.57;99355.23;305408;119;2905071;-74
2020/12/24 00:31:16;;;;;;;32.94;16.41;;;;;;;3.65;75.63;99356.09;340383;116;1961918;-75
2020/12/24 00:32:21;;;;;;;30.33;15.40;;;;;;;3.57;75.87;99345.39;339565;118;1962968;-74
2020/12/24 00:33:27;;;;;;;38.64;17.04;;;;;;;3.64;75.95;99351.73;332301;119;1962415;-74
2020/12/24 00:34:33;;;;;;;37.75;16.86;;;;;;;3.66;76.15;99351.57;306569;109;2743801;-73
2020/12/24 00:35:39;;;;;;;33.82;15.42;;;;;;;3.69;76.15;99353.91;341187;116;1961008;-73
2020/12/24 00:36:44;;;;;;;32.04;14.01;;;;;;;3.70;76.14;99348.38;351632;113;1961874;-74
2020/12/24 00:37:49;;;;;;;31.37;16.03;;;;;;;3.73;75.69;99349.88;353372;109;1961924;-73
2020/12/24 00:38:55;;;;;;;33.36;16.14;;;;;;;3.77;75.25;99353.05;348179;115;1961957;-74
2020/12/24 00:40:00;;;;;;;31.74;14.06;;;;;;;3.77;75.31;99353.05;346844;115;1962063;-74
2020/12/24 00:41:07;;;;;;;34.21;14.61;;;;;;;3.77;74.95;99355.73;349611;115;1961863;-74
2020/12/24 00:42:12;;;;;;;31.33;15.15;;;;;;;3.72;75.22;99357.05;297855;115;2116309;-75
2020/12/24 00:43:18;;;;;;;28.27;14.25;;;;;;;3.72;75.54;99353.56;329549;115;1962013;-75
2020/12/24 00:44:23;;;;;;;30.86;14.12;;;;;;;3.70;75.87;99361.73;338490;117;1964984;-73
2020/12/24 00:45:28;;;;;;;35.19;15.38;;;;;;;3.71;75.99;99363.41;347973;115;1961963;-74
2020/12/24 00:46:34;;;;;;;31.76;14.21;;;;;;;3.73;76.06;99363.23;350583;115;1963961;-74
2020/12/24 00:47:39;;;;;;;35.39;14.73;;;;;;;3.75;75.52;99367.40;347179;115;1962115;-74
2020/12/24 00:48:46;;;;;;;31.64;14.85;;;;;;;3.74;75.36;99360.40;345807;114;1961964;-73
2020/12/24 00:49:53;;;;;;;33.73;14.90;;;;;;;3.74;75.55;99364.91;292611;115;2171641;-75
2020/12/24 00:50:59;;;;;;;31.87;14.77;;;;;;;3.76;75.11;99368.26;346273;116;1961926;-74
2020/12/24 00:52:04;;;;;;;35.19;14.02;;;;;;;3.74;75.30;99371.08;350726;115;1961968;-73
2020/12/24 00:53:10;;;;;;;34.29;14.18;;;;;;;3.72;75.23;99367.74;344221;116;1962016;-73
2020/12/24 00:54:16;;;;;;;29.90;15.01;;;;;;;3.71;75.51;99371.42;309782;117;1996297;-74
2020/12/24 00:55:23;;;;;;;35.49;15.75;;;;;;;3.70;75.68;99366.24;345552;116;1962040;-73
2020/12/24 00:56:28;;;;;;;36.38;14.59;;;;;;;3.69;75.84;99372.59;345523;116;1960636;-74
2020/12/24 00:57:36;;;;;;;36.72;15.80;;;;;;;3.69;75.63;99370.76;319433;115;2507967;-74
2020/12/24 00:58:42;;;;;;;30.92;15.76;;;;;;;3.71;75.41;99375.94;342036;114;1962045;-73
2020/12/24 00:59:47;;;;;;;38.33;15.57;;;;;;;3.70;75.39;99364.40;347948;115;1963007;-74
2020/12/24 01:00:53;;;;;;;32.58;15.55;;;;;;;3.65;75.49;99373.92;348836;115;1963993;-74
2020/12/24 01:01:58;;;;;;;34.82;16.34;;;;;;;3.65;75.87;99382.80;343962;116;1962044;-73
2020/12/24 01:03:04;;;;;;;37.87;16.67;;;;;;;3.66;75.82;99373.77;346785;115;1963033;-74
2020/12/24 01:04:11;;;;;;;33.40;15.15;;;;;;;3.67;75.48;99372.75;308429;108;2757857;-73
2020/12/24 01:05:16;;;;;;;37.91;16.07;;;;;;;3.65;75.51;99371.25;345652;117;1960981;-74
2020/12/24 01:06:22;;;;;;;35.04;15.63;;;;;;;3.65;75.78;99371.25;344444;117;1961936;-73
2020/12/24 01:07:27;;;;;;;33.36;15.06;;;;;;;3.64;75.66;99370.42;341686;116;1962028;-73
2020/12/24 01:08:32;;;;;;;32.12;15.54;;;;;;;3.61;75.37;99364.59;347638;114;1961977;-73
2020/12/24 01:09:38;;;;;;;30.77;14.73;;;;;;;3.62;75.67;99359.07;344347;117;1961946;-73
2020/12/24 01:10:44;;;;;;;37.73;15.81;;;;;;;3.62;75.87;99361.73;318341;117;2488981;-74
2020/12/24 01:11:50;;;;;;;35.58;15.94;;;;;;;3.64;75.66;99362.41;321575;114;1962053;-74
2020/12/24 01:12:55;;;;;;;36.75;16.32;;;;;;;3.64;76.00;99370.42;345439;115;1962943;-73
2020/12/24 01:14:01;;;;;;;32.64;16.04;;;;;;;3.63;76.12;99368.77;345635;116;1962982;-74
2020/12/24 01:15:10;;;;;;;34.75;15.44;;;;;;;3.63;76.13;99384.80;347366;117;1962048;-74
2020/12/24 01:16:18;;;;;;;37.78;16.77;;;;;;;3.66;76.38;99375.61;346586;107;1962225;-74
2020/12/24 01:17:25;;;;;;;34.61;15.68;;;;;;;3.69;75.97;99386.78;343026;115;1969939;-73
2020/12/24 01:18:31;;;;;;;40.79;17.89;;;;;;;3.71;75.84;99387.45;334439;120;1962044;-73
2020/12/24 01:19:36;;;;;;;38.14;17.15;;;;;;;3.72;76.16;99378.42;329874;120;1961973;-73
2020/12/24 01:20:42;;;;;;;34.19;15.23;;;;;;;3.74;75.97;99381.77;336881;118;1961980;-74
2020/12/24 01:21:48;;;;;;;38.50;15.57;;;;;;;3.76;75.87;99373.59;298329;117;2710981;-72
2020/12/24 01:22:53;;;;;;;37.25;16.10;;;;;;;3.77;75.59;99374.43;311751;118;1960867;-74
2020/12/24 01:23:59;;;;;;;31.29;16.06;;;;;;;3.77;75.96;99374.43;338800;117;1962048;-73
2020/12/24 01:25:04;;;;;;;30.64;15.14;;;;;;;3.77;76.12;99371.76;338753;119;1963027;-73
2020/12/24 01:26:10;;;;;;;36.66;15.84;;;;;;;3.80;76.06;99369.56;338395;120;1961980;-74
2020/12/24 01:27:16;;;;;;;36.02;15.37;;;;;;;3.82;75.71;99369.41;338387;118;1963069;-73
2020/12/24 01:28:23;;;;;;;34.19;16.46;;;;;;;3.83;75.63;99371.06;291564;119;2873905;-74
2020/12/24 01:29:28;;;;;;;34.83;16.22;;;;;;;3.83;75.40;99371.06;314706;117;1962130;-74
2020/12/24 01:30:35;;;;;;;33.48;14.67;;;;;;;3.83;75.55;99373.73;337075;118;1962019;-73
2020/12/24 01:31:45;;;;;;;34.23;14.12;;;;;;;3.81;75.81;99376.59;337176;118;1962003;-73
2020/12/24 01:32:51;;;;;;;37.50;14.48;;;;;;;3.83;75.48;99374.56;336638;118;1963965;-72
2020/12/24 01:33:57;;;;;;;34.81;15.72;;;;;;;3.82;75.48;99367.56;311521;118;2435005;-72
2020/12/24 01:35:03;;;;;;;33.39;14.75;;;;;;;3.81;76.00;99370.40;304642;118;1961863;-74
2020/12/24 01:36:10;;;;;;;38.66;14.86;;;;;;;3.82;75.46;99370.24;335674;118;1961955;-73
2020/12/24 01:37:16;;;;;;;27.74;14.71;;;;;;;3.81;75.55;99368.58;334665;118;1962019;-72
2020/12/24 01:38:23;;;;;;;34.10;15.04;;;;;;;3.83;75.47;99371.90;336811;118;1961914;-72
2020/12/24 01:39:29;;;;;;;38.83;15.74;;;;;;;3.81;75.59;99362.38;337187;118;1963972;-72
2020/12/24 01:40:35;;;;;;;29.71;15.36;;;;;;;3.82;75.79;99364.90;337832;118;1962029;-73
2020/12/24 01:41:42;;;;;;;33.04;15.64;;;;;;;3.84;75.94;99367.41;308731;117;2498978;-74
2020/12/24 01:42:48;;;;;;;38.97;15.16;;;;;;;3.83;75.92;99363.88;324515;117;1962052;-73
2020/12/24 01:43:54;;;;;;;41.42;16.17;;;;;;;3.85;75.69;99364.55;337983;118;1962042;-73
2020/12/24 01:45:00;;;;;;;35.74;17.29;;;;;;;3.87;75.25;99353.70;337115;119;1961986;-72
2020/12/24 01:46:06;;;;;;;41.16;18.04;;;;;;;3.88;75.06;99363.38;324335;117;2339094;-73
2020/12/24 01:47:12;;;;;;;36.80;17.47;;;;;;;3.83;75.31;99360.38;341306;117;1962956;-73
2020/12/24 01:48:17;;;;;;;37.88;18.16;;;;;;;3.82;75.23;99358.73;340471;118;1962051;-71
2020/12/24 01:49:22;;;;;;;38.23;17.39;;;;;;;3.85;74.81;99358.38;337740;117;1963012;-72
2020/12/24 01:50:28;;;;;;;32.99;17.81;;;;;;;3.82;75.19;99358.73;337916;118;1960749;-73
2020/12/24 01:51:35;;;;;;;39.76;17.31;;;;;;;3.80;75.09;99368.74;339223;116;1961892;-74
2020/12/24 01:52:40;;;;;;;43.18;18.52;;;;;;;3.80;74.80;99361.55;319954;117;2301995;-74
2020/12/24 01:53:46;;;;;;;38.58;17.75;;;;;;;3.77;75.11;99367.24;325719;119;1963983;-74
2020/12/24 01:54:51;;;;;;;35.07;15.84;;;;;;;3.74;75.35;99362.24;336292;118;1961996;-73
2020/12/24 01:55:57;;;;;;;40.15;16.03;;;;;;;3.77;75.02;99363.74;338336;119;1962043;-74
2020/12/24 01:57:02;;;;;;;41.62;17.10;;;;;;;3.72;74.96;99361.57;336907;118;1964995;-74
2020/12/24 01:58:08;;;;;;;37.77;16.00;;;;;;;3.71;75.37;99363.41;337172;118;1964985;-73
2020/12/24 01:59:16;;;;;;;33.69;16.27;;;;;;;3.72;75.41;99361.57;325817;121;1962027;-73
2020/12/24 02:00:24;;;;;;;37.54;16.94;;;;;;;3.71;75.60;99366.09;328633;119;2964956;-73
2020/12/24 02:01:30;;;;;;;35.98;15.02;;;;;;;3.72;75.54;99361.57;315741;119;1961944;-73
2020/12/24 02:02:35;;;;;;;34.79;14.98;;;;;;;3.72;75.56;99354.38;339032;119;1961933;-74
2020/12/24 02:03:40;;;;;;;39.51;15.06;;;;;;;3.74;75.47;99359.57;341435;118;1962021;-74
2020/12/24 02:04:46;;;;;;;34.98;14.23;;;;;;;3.73;75.14;99358.74;339572;118;1961964;-73
2020/12/24 02:05:52;;;;;;;36.03;14.19;;;;;;;3.72;75.20;99356.23;337953;119;1961957;-74
2020/12/24 02:06:58;;;;;;;37.25;14.59;;;;;;;3.69;75.61;99361.91;337805;118;1962010;-73
2020/12/24 02:08:04;;;;;;;31.59;14.46;;;;;;;3.71;75.38;99362.59;296313;119;2828017;-74
2020/12/24 02:09:15;;;;;;;35.09;14.27;;;;;;;3.69;75.86;99364.59;315322;117;1961939;-73
2020/12/24 02:10:21;;;;;;;34.33;15.26;;;;;;;3.69;75.96;99361.91;336463;117;1961970;-73
2020/12/24 02:11:26;;;;;;;30.02;13.80;;;;;;;3.70;75.97;99352.89;338323;117;1968968;-73
2020/12/24 02:12:32;;;;;;;30.21;13.50;;;;;;;3.71;75.90;99359.91;337555;118;1963031;-73
2020/12/24 02:13:38;;;;;;;31.01;14.12;;;;;;;3.71;75.28;99360.74;293760;117;2826064;-74
2020/12/24 02:14:45;;;;;;;32.58;14.69;;;;;;;3.70;75.98;99353.71;338331;117;1962042;-74
2020/12/24 02:15:50;;;;;;;33.41;13.69;;;;;;;3.71;76.00;99358.07;338289;117;1961913;-73
2020/12/24 02:16:55;;;;;;;39.03;14.64;;;;;;;3.70;75.25;99351.05;336960;118;1962191;-74
2020/12/24 02:18:03;;;;;;;38.68;14.18;;;;;;;3.72;75.79;99362.40;299416;118;1978852;-73
2020/12/24 02:19:08;;;;;;;36.33;14.37;;;;;;;3.73;75.87;99357.88;328237;118;1961989;-74
2020/12/24 02:20:16;;;;;;;30.52;14.01;;;;;;;3.74;75.72;99356.90;338845;117;1961992;-73
2020/12/24 02:21:21;;;;;;;33.32;14.29;;;;;;;3.77;75.55;99363.74;337790;118;1963976;-74
2020/12/24 02:22:27;;;;;;;34.74;15.13;;;;;;;3.79;75.14;99359.07;295569;117;2772049;-74
2020/12/24 02:23:32;;;;;;;34.69;15.24;;;;;;;3.76;75.15;99354.91;314000;117;1961986;-74
2020/12/24 02:24:42;;;;;;;37.67;15.18;;;;;;;3.77;74.98;99355.73;331889;117;1963851;-74
2020/12/24 02:25:47;;;;;;;33.87;14.93;;;;;;;3.73;75.47;99352.55;301226;118;1978702;-74
2020/12/24 02:26:52;;;;;;;35.44;14.99;;;;;;;3.71;75.77;99344.72;325678;117;1960961;-74
2020/12/24 02:27:58;;;;;;;32.81;14.41;;;;;;;3.72;75.54;99340.20;336300;117;1963017;-73
2020/12/24 02:29:03;;;;;;;38.50;14.02;;;;;;;3.72;75.54;99350.89;337314;118;1963031;-74
2020/12/24 02:30:09;;;;;;;30.11;13.23;;;;;;;3.71;75.48;99341.22;336804;117;1961951;-74
2020/12/24 02:31:15;;;;;;;34.86;14.22;;;;;;;3.71;75.02;99334.03;337137;118;1961985;-74
2020/12/24 02:32:21;;;;;;;30.14;13.02;;;;;;;3.72;75.07;99335.69;297283;118;2736937;-74
2020/12/24 02:33:27;;;;;;;34.21;13.81;;;;;;;3.71;74.41;99342.05;306999;117;1963978;-73
2020/12/24 02:34:33;;;;;;;33.16;13.81;;;;;;;3.64;74.95;99333.03;334846;117;1965033;-74
2020/12/24 02:35:38;;;;;;;31.64;12.92;;;;;;;3.59;75.55;99339.89;330161;120;1964030;-74
2020/12/24 02:36:46;;;;;;;27.00;12.08;;;;;;;3.60;75.47;99353.09;290386;120;2782065;-73
2020/12/24 02:37:53;;;;;;;29.07;12.73;;;;;;;3.61;75.62;99344.06;319225;118;1962975;-73
2020/12/24 02:38:58;;;;;;;32.28;13.37;;;;;;;3.64;75.17;99338.37;334654;118;1965006;-73
2020/12/24 02:40:03;;;;;;;27.69;11.91;;;;;;;3.64;75.30;99341.05;326279;121;1961981;-73
2020/12/24 02:41:10;;;;;;;27.26;12.84;;;;;;;3.63;75.58;99342.06;335959;118;1963963;-74
2020/12/24 02:42:16;;;;;;;27.58;12.96;;;;;;;3.62;75.92;99348.39;310478;118;2464901;-74
2020/12/24 02:43:21;;;;;;;28.79;14.04;;;;;;;3.64;76.02;99353.57;333692;118;1961955;-74
2020/12/24 02:44:26;;;;;;;27.51;13.39;;;;;;;3.65;76.00;99352.55;338374;117;1962982;-73
2020/12/24 02:45:32;;;;;;;33.94;13.98;;;;;;;3.65;75.96;99348.08;338320;118;1962034;-74
2020/12/24 02:46:41;;;;;;;31.66;14.79;;;;;;;3.68;75.85;99354.92;335761;118;1962034;-74
2020/12/24 02:47:46;;;;;;;37.81;14.59;;;;;;;3.69;75.85;99348.56;337990;117;1961969;-73
2020/12/24 02:48:51;;;;;;;30.72;14.15;;;;;;;3.70;75.54;99350.21;337853;118;1962049;-73
2020/12/24 02:49:58;;;;;;;30.17;13.27;;;;;;;3.71;75.14;99343.89;336972;118;1961938;-73
2020/12/24 02:51:05;;;;;;;30.54;13.49;;;;;;;3.70;75.08;99356.38;291582;117;2861932;-73
2020/12/24 02:52:10;;;;;;;32.86;14.50;;;;;;;3.66;75.81;99357.74;327792;117;1964045;-74
2020/12/24 02:53:15;;;;;;;30.43;13.62;;;;;;;3.65;76.03;99353.42;336745;118;1963006;-75
2020/12/24 02:54:21;;;;;;;29.92;13.22;;;;;;;3.66;76.10;99352.41;339621;118;1962913;-74
2020/12/24 02:55:26;;;;;;;30.61;15.12;;;;;;;3.69;76.13;99357.40;337448;118;1962006;-74
2020/12/24 02:56:33;;;;;;;32.88;13.34;;;;;;;3.69;75.72;99353.91;338415;118;1962014;-73
2020/12/24 02:57:39;;;;;;;28.25;13.07;;;;;;;3.70;75.95;99353.71;306242;118;2900066;-74
2020/12/24 02:58:44;;;;;;;30.28;14.09;;;;;;;3.71;75.82;99358.07;309999;118;1961970;-73
2020/12/24 02:59:49;;;;;;;25.83;14.02;;;;;;;3.74;75.75;99351.56;338458;118;1962030;-73
2020/12/24 03:00:54;;;;;;;29.35;14.49;;;;;;;3.72;75.72;99353.56;338157;117;1961962;-74
2020/12/24 03:02:00;;;;;;;30.46;15.51;;;;;;;3.73;75.75;99355.21;337887;118;1962970;-74
2020/12/24 03:03:05;;;;;;;30.77;14.58;;;;;;;3.74;75.89;99351.56;336650;118;1961994;-74
2020/12/24 03:04:12;;;;;;;31.77;14.16;;;;;;;3.72;76.01;99357.05;337357;117;1961987;-74
2020/12/24 03:05:18;;;;;;;31.23;14.55;;;;;;;3.74;75.95;99351.56;292980;120;2666050;-74
2020/12/24 03:06:24;;;;;;;30.29;14.16;;;;;;;3.77;75.75;99358.40;331285;118;1961924;-75
2020/12/24 03:07:29;;;;;;;26.57;13.94;;;;;;;3.77;75.65;99358.40;337053;118;1963753;-73
2020/12/24 03:08:34;;;;;;;34.03;13.91;;;;;;;3.78;75.45;99360.05;336633;118;1962014;-73
2020/12/24 03:09:40;;;;;;;29.28;14.33;;;;;;;3.77;75.66;99353.88;329883;121;1961972;-74
2020/12/24 03:10:47;;;;;;;29.26;13.31;;;;;;;3.76;75.80;99352.23;321483;118;2923083;-73
2020/12/24 03:11:53;;;;;;;26.86;14.21;;;;;;;3.77;75.96;99350.39;311200;118;1962957;-74
2020/12/24 03:12:58;;;;;;;30.05;12.74;;;;;;;3.79;75.91;99345.71;335760;118;1963078;-74
2020/12/24 03:14:03;;;;;;;28.24;12.60;;;;;;;3.81;75.29;99351.70;335745;118;1961961;-73
2020/12/24 03:15:11;;;;;;;33.54;14.46;;;;;;;3.82;74.90;99340.02;335437;118;1961898;-73
2020/12/24 03:16:17;;;;;;;28.21;13.69;;;;;;;3.81;74.63;99347.21;285446;118;2140946;-74
2020/12/24 03:17:22;;;;;;;31.39;14.06;;;;;;;3.77;75.06;99339.70;313159;119;1962030;-74
2020/12/24 03:18:27;;;;;;;29.16;14.05;;;;;;;3.73;75.35;99334.70;316777;122;1962028;-75
2020/12/24 03:19:33;;;;;;;29.44;13.59;;;;;;;3.72;75.29;99333.02;336150;118;1961970;-73
2020/12/24 03:20:40;;;;;;;26.86;13.63;;;;;;;3.70;75.57;99334.19;335642;118;1960710;-74
2020/12/24 03:21:46;;;;;;;30.67;13.02;;;;;;;3.73;75.06;99339.19;294341;121;2667997;-74
2020/12/24 03:22:51;;;;;;;33.34;13.17;;;;;;;3.71;75.27;99339.38;310644;118;1962035;-73
2020/12/24 03:23:57;;;;;;;25.61;12.59;;;;;;;3.67;75.56;99337.20;336691;118;1961956;-74
2020/12/24 03:25:02;;;;;;;25.64;12.87;;;;;;;3.69;75.68;99340.55;336338;118;1962069;-73
2020/12/24 03:26:08;;;;;;;26.78;13.16;;;;;;;3.68;75.71;99333.55;336358;118;1962016;-73
2020/12/24 03:27:13;;;;;;;26.52;15.27;;;;;;;3.69;75.97;99333.36;335666;118;1962943;-73
2020/12/24 03:28:20;;;;;;;28.78;13.18;;;;;;;3.69;75.72;99336.03;340598;117;1961970;-75
2020/12/24 03:29:25;;;;;;;33.66;14.21;;;;;;;3.68;75.86;99331.70;298361;121;2538021;-73
2020/12/24 03:30:32;;;;;;;23.67;11.84;;;;;;;3.70;75.87;99331.52;328818;120;1961940;-73
2020/12/24 03:31:37;;;;;;;30.99;12.82;;;;;;;3.71;75.91;99328.69;336909;118;1963063;-73
2020/12/24 03:32:43;;;;;;;30.66;13.15;;;;;;;3.73;75.87;99328.50;337520;118;1962022;-73
2020/12/24 03:33:50;;;;;;;28.55;13.17;;;;;;;3.73;75.76;99325.83;336587;118;1961989;-73
2020/12/24 03:34:56;;;;;;;24.09;11.53;;;;;;;3.74;75.60;99323.00;323837;118;1962057;-75
2020/12/24 03:36:01;;;;;;;27.78;11.69;;;;;;;3.75;75.44;99321.16;330537;119;1962928;-74
2020/12/24 03:37:07;;;;;;;23.59;12.64;;;;;;;3.75;75.35;99323.83;335171;118;1961995;-74
2020/12/24 03:38:13;;;;;;;30.14;12.73;;;;;;;3.77;75.08;99329.84;336622;118;1961980;-73
2020/12/24 03:39:19;;;;;;;25.78;12.39;;;;;;;3.73;75.38;99332.03;284154;123;2785092;-73
2020/12/24 03:40:26;;;;;;;25.60;13.05;;;;;;;3.73;75.88;99336.52;323779;123;1961927;-73
2020/12/24 03:41:32;;;;;;;28.58;13.87;;;;;;;3.73;75.69;99334.70;328288;121;1961955;-73
2020/12/24 03:42:37;;;;;;;29.36;13.16;;;;;;;3.75;75.53;99324.66;324615;123;1961784;-74
2020/12/24 03:43:43;;;;;;;27.92;12.81;;;;;;;3.75;75.68;99321.98;336811;118;1962074;-74
2020/12/24 03:44:49;;;;;;;27.16;12.91;;;;;;;3.79;75.38;99319.00;336937;118;1963092;-74
2020/12/24 03:45:54;;;;;;;33.32;14.10;;;;;;;3.77;75.78;99316.48;302192;119;1963944;-74
2020/12/24 03:46:59;;;;;;;24.27;12.83;;;;;;;3.80;75.24;99312.64;325789;117;1961998;-73
2020/12/24 03:48:05;;;;;;;26.91;13.07;;;;;;;3.80;75.18;99313.47;339368;117;1961978;-74
2020/12/24 03:49:12;;;;;;;30.85;14.08;;;;;;;3.80;75.16;99315.31;336112;118;1962042;-74
2020/12/24 03:50:28;;;;;;;26.12;13.03;;;;;;;3.80;75.14;99312.64;288720;118;2114466;-74
2020/12/24 03:51:34;;;;;;;24.01;12.47;;;;;;;3.78;74.97;99310.13;312858;117;1965079;-73
2020/12/24 03:52:39;;;;;;;28.60;13.44;;;;;;;3.75;75.15;99305.95;327974;118;1960870;-73
2020/12/24 03:53:44;;;;;;;26.88;12.65;;;;;;;3.75;75.25;99310.47;338386;118;1960861;-74
2020/12/24 03:54:49;;;;;;;24.07;12.73;;;;;;;3.76;75.31;99314.83;338529;118;1960927;-73
2020/12/24 03:55:55;;;;;;;34.00;14.71;;;;;;;3.75;75.76;99310.47;337964;117;1960761;-73
2020/12/24 03:57:00;;;;;;;27.53;13.51;;;;;;;3.76;75.52;99314.83;338601;117;1960541;-74
2020/12/24 03:58:06;;;;;;;27.91;15.36;;;;;;;3.77;75.07;99312.98;339055;117;1960759;-73
2020/12/24 03:59:12;;;;;;;30.52;13.26;;;;;;;3.79;75.13;99303.80;299089;117;2719851;-73
2020/12/24 04:00:18;;;;;;;31.79;13.72;;;;;;;3.78;74.51;99312.80;337066;118;1960793;-73
2020/12/24 04:01:25;;;;;;;25.34;12.76;;;;;;;3.77;75.07;99304.97;337774;118;1962021;-74
2020/12/24 04:02:30;;;;;;;25.82;13.27;;;;;;;3.74;75.18;99301.63;337940;117;1961898;-74
2020/12/24 04:03:36;;;;;;;27.71;12.61;;;;;;;3.74;75.21;99300.80;307271;117;2886039;-73
2020/12/24 04:04:43;;;;;;;23.84;11.80;;;;;;;3.74;74.71;99306.14;334780;118;1964980;-74
2020/12/24 04:05:48;;;;;;;29.45;13.21;;;;;;;3.70;75.19;99302.95;336173;118;1964063;-73
2020/12/24 04:06:53;;;;;;;28.05;13.15;;;;;;;3.70;75.20;99304.80;336041;118;1962914;-73
2020/12/24 04:07:59;;;;;;;25.94;13.36;;;;;;;3.72;74.64;99300.95;333518;118;1961952;-73
2020/12/24 04:09:05;;;;;;;24.58;12.08;;;;;;;3.68;75.21;99304.16;338621;117;1962021;-74
2020/12/24 04:10:11;;;;;;;28.78;12.37;;;;;;;3.68;75.27;99301.50;330119;118;1961901;-73
2020/12/24 04:11:19;;;;;;;22.77;12.42;;;;;;;3.68;74.89;99302.32;337633;117;1962025;-73
2020/12/24 04:12:24;;;;;;;26.59;12.54;;;;;;;3.69;74.88;99303.15;337550;117;1961943;-73
2020/12/24 04:13:30;;;;;;;26.90;12.28;;;;;;;3.65;75.05;99304.48;305404;118;2905947;-73
2020/12/24 04:14:37;;;;;;;26.86;12.01;;;;;;;3.62;75.07;99302.98;312029;118;1961929;-74
2020/12/24 04:15:43;;;;;;;23.89;11.72;;;;;;;3.58;75.11;99301.67;329333;120;1963029;-73
2020/12/24 04:16:49;;;;;;;25.66;11.71;;;;;;;3.56;75.50;99292.98;336076;119;1962005;-74
2020/12/24 04:17:55;;;;;;;22.06;10.83;;;;;;;3.55;75.35;99302.02;284578;123;2720002;-74
2020/12/24 04:19:00;;;;;;;23.73;11.88;;;;;;;3.56;75.41;99295.66;304901;119;1965157;-73
2020/12/24 04:20:06;;;;;;;24.01;11.39;;;;;;;3.52;75.46;99294.34;322070;120;1961794;-73
2020/12/24 04:21:11;;;;;;;27.15;11.22;;;;;;;3.53;75.74;99293.33;333279;119;1961921;-73
2020/12/24 04:22:17;;;;;;;22.35;12.28;;;;;;;3.52;75.85;99289.84;332715;119;1962005;-74
2020/12/24 04:23:23;;;;;;;25.92;11.44;;;;;;;3.56;75.51;99290.31;332684;119;1961904;-74
2020/12/24 04:24:29;;;;;;;25.29;11.23;;;;;;;3.58;75.51;99284.82;332467;118;1964842;-72
2020/12/24 04:25:35;;;;;;;28.01;11.91;;;;;;;3.57;75.69;99283.96;318236;121;1962025;-74
2020/12/24 04:26:40;;;;;;;27.44;11.89;;;;;;;3.58;75.56;99284.82;331195;119;1961961;-74
2020/12/24 04:27:46;;;;;;;25.06;11.11;;;;;;;3.59;75.51;99289.97;333651;119;1961934;-73
2020/12/24 04:28:51;;;;;;;26.15;11.37;;;;;;;3.59;75.48;99287.30;332639;120;1962974;-74
2020/12/24 04:29:58;;;;;;;25.73;10.80;;;;;;;3.61;75.33;99285.30;333023;119;1961982;-74
2020/12/24 04:31:04;;;;;;;27.25;11.22;;;;;;;3.62;75.17;99297.64;286966;119;2870988;-74
2020/12/24 04:32:10;;;;;;;26.87;11.34;;;;;;;3.62;75.33;99291.47;324041;123;1961962;-75
2020/12/24 04:33:15;;;;;;;23.47;10.48;;;;;;;3.60;75.54;99288.12;319628;123;1961912;-74
2020/12/24 04:34:20;;;;;;;31.17;12.38;;;;;;;3.61;75.10;99287.14;333480;119;1962044;-73
2020/12/24 04:35:26;;;;;;;24.94;10.66;;;;;;;3.59;75.25;99291.81;333151;119;1961933;-73
2020/12/24 04:36:32;;;;;;;23.16;11.50;;;;;;;3.58;75.57;99290.16;332257;119;1962003;-74
2020/12/24 04:37:38;;;;;;;27.03;12.43;;;;;;;3.59;75.45;99294.48;293512;120;2723085;-74
2020/12/24 04:38:43;;;;;;;23.87;11.92;;;;;;;3.58;75.59;99293.66;311638;119;1962010;-73
2020/12/24 04:39:48;;;;;;;21.89;10.74;;;;;;;3.59;75.65;99289.14;328216;119;1962003;-74
2020/12/24 04:40:59;;;;;;;24.05;11.76;;;;;;;3.61;74.89;99295.98;332517;119;1962984;-73
2020/12/24 04:42:04;;;;;;;26.61;12.12;;;;;;;3.60;75.07;99286.31;333268;119;1961941;-73
2020/12/24 04:43:11;;;;;;;26.06;12.05;;;;;;;3.56;75.63;99286.82;332600;119;1961950;-74
2020/12/24 04:44:17;;;;;;;26.82;11.23;;;;;;;3.58;75.46;99287.48;302318;119;2565966;-74
2020/12/24 04:45:26;;;;;;;24.88;10.73;;;;;;;3.58;75.46;99292.83;313104;120;1962058;-74
2020/12/24 04:46:35;;;;;;;24.89;11.96;;;;;;;3.59;75.36;99286.47;297143;120;2673059;-74
2020/12/24 04:47:42;;;;;;;23.01;11.24;;;;;;;3.60;75.37;99280.97;332751;119;1962058;-74
2020/12/24 04:48:48;;;;;;;26.66;10.96;;;;;;;3.60;75.56;99282.79;318397;118;1962015;-74
2020/12/24 04:49:59;;;;;;;24.67;11.57;;;;;;;3.58;75.60;99282.15;334186;120;1962059;-73
2020/12/24 04:51:08;;;;;;;27.91;11.81;;;;;;;3.58;75.58;99287.48;332954;119;1961949;-74
2020/12/24 04:52:14;;;;;;;25.01;12.03;;;;;;;3.59;75.76;99281.13;330806;120;1962049;-74
2020/12/24 04:53:20;;;;;;;27.87;11.79;;;;;;;3.60;75.44;99282.79;331338;120;1962058;-73
2020/12/24 04:54:28;;;;;;;22.85;11.07;;;;;;;3.56;75.64;99281.48;305052;118;2519917;-74
2020/12/24 04:55:33;;;;;;;23.31;11.30;;;;;;;3.38;75.43;99253.13;333470;119;1961989;-75
2020/12/24 04:56:41;;;;;;;27.20;11.18;;;;;;;3.56;75.81;99284.15;332408;120;1961913;-74
2020/12/24 04:57:49;;;;;;;27.77;12.84;;;;;;;3.58;75.42;99280.30;307532;119;1962002;-74
2020/12/24 04:58:54;;;;;;;22.17;10.98;;;;;;;3.57;75.67;99289.30;333671;119;1961880;-74
2020/12/24 05:00:01;;;;;;;25.27;11.36;;;;;;;3.62;75.17;99284.28;293705;119;2746033;-73